createdAt,value
2023-04-23T06:55:03.778Z,98036.9
2023-04-23T07:00:40.469Z,98030.1
2023-04-23T07:06:16.513Z,98033.7
2023-04-23T07:11:52.833Z,98032.2
2023-04-23T07:17:29.631Z,98039.5
2023-04-23T07:23:38.301Z,98042.4
2023-04-23T07:29:13.564Z,98045.1
2023-04-23T07:34:49.062Z,98044
2023-04-23T07:40:24.686Z,98044.4
2023-04-23T07:46:01.113Z,98043.5
2023-04-23T07:51:38.024Z,98044
2023-04-23T07:57:13.388Z,98050.4
2023-04-23T08:02:49.433Z,98057.4
2023-04-23T08:08:26.657Z,98056.3
2023-04-23T08:14:04.490Z,98060.1
2023-04-23T08:19:40.822Z,98062.1
2023-04-23T08:25:19.468Z,98061.4
2023-04-23T08:30:56.467Z,98063.1
2023-04-23T08:36:32.584Z,98082
2023-04-23T08:42:08.322Z,98087.9
2023-04-23T08:47:44.804Z,98078.6
2023-04-23T08:53:43.349Z,98083.4
2023-04-23T08:59:17.668Z,98085
2023-04-23T09:04:56.853Z,98103.5
2023-04-23T09:10:32.676Z,98121.8
2023-04-23T09:16:08.570Z,98146.5
2023-04-23T09:21:44.037Z,98161
2023-04-23T09:27:21.067Z,98190.4
2023-04-23T09:32:58.512Z,98218.1
2023-04-23T09:38:34.135Z,98243
2023-04-23T09:44:10.847Z,98235.4
2023-04-23T09:49:47.839Z,98229.4
2023-04-23T09:55:24.077Z,98219.2
2023-04-23T10:00:59.565Z,98209.4
2023-04-23T10:07:13.588Z,98220.5
2023-04-23T10:12:56.543Z,98235.7
2023-04-23T10:18:32.181Z,98249
2023-04-23T10:24:07.685Z,98251.2
2023-04-23T10:29:44.940Z,98261.5
2023-04-23T10:35:21.188Z,98265.6
2023-04-23T10:40:57.724Z,98278.5
2023-04-23T10:46:33.395Z,98294.8
2023-04-23T10:52:25.901Z,98313.6
2023-04-23T10:58:04.097Z,98324.2
2023-04-23T11:03:45.482Z,98323.5
2023-04-23T11:09:23.051Z,98342.2
2023-04-23T11:14:58.833Z,98351.8
2023-04-23T11:20:34.382Z,98355.5
2023-04-23T11:26:11.092Z,98365.7
2023-04-23T11:32:04.177Z,98374.1
2023-04-23T11:37:41.448Z,98378.1
2023-04-23T11:43:17.899Z,98384.6
2023-04-23T11:48:53.979Z,98381.6
2023-04-23T11:54:30.119Z,98376.5
2023-04-23T12:00:07.449Z,98371.9
2023-04-23T12:05:44.250Z,98391.4
2023-04-23T12:11:20.171Z,98389.9
2023-04-23T12:16:56.025Z,98388
2023-04-23T12:22:31.514Z,98382.1
2023-04-23T12:28:06.916Z,98383.5
2023-04-23T12:33:43.152Z,98393.3
2023-04-23T12:39:19.178Z,98392.6
2023-04-23T12:44:54.316Z,98395.9
2023-04-23T12:50:31.080Z,98397.1
2023-04-23T12:56:06.087Z,98399.5
2023-04-23T13:01:41.327Z,98403.1
2023-04-23T13:07:19.342Z,98403
2023-04-23T13:12:55.628Z,98403.7
2023-04-23T13:18:31.167Z,98410.5
2023-04-23T13:24:06.587Z,98411.7
2023-04-23T13:29:44.500Z,98406.2
2023-04-23T13:35:19.992Z,98391
2023-04-23T13:40:57.847Z,98412.5
2023-04-23T13:46:36.652Z,98396.8
2023-04-23T13:52:34.081Z,98405.9
2023-04-23T13:58:06.855Z,98414.3
2023-04-23T14:03:42.241Z,98412.7
2023-04-23T14:09:18.422Z,98401
2023-04-23T14:14:54.209Z,98401.8
2023-04-23T14:20:30.143Z,98395.7
2023-04-23T14:26:06.966Z,98401
2023-04-23T14:31:42.790Z,98401.7
2023-04-23T14:37:19.333Z,98399.4
2023-04-23T14:43:15.307Z,98414.9
2023-04-23T14:48:52.524Z,98414
2023-04-23T14:54:27.977Z,98404.5
2023-04-23T15:00:03.761Z,98413.3
2023-04-23T15:05:39.397Z,98419.2
2023-04-23T15:11:15.494Z,98407.2
2023-04-23T15:16:51.644Z,98402.8
2023-04-23T15:22:27.476Z,98397.3
2023-04-23T15:28:02.495Z,98393.7
2023-04-23T15:33:38.391Z,98380.3
2023-04-23T15:39:16.662Z,98373.2
2023-04-23T15:44:52.479Z,98365.4
2023-04-23T15:50:28.482Z,98363
2023-04-23T15:56:04.856Z,98378.5
2023-04-23T16:01:42.868Z,98381.6
2023-04-23T16:07:20.055Z,98395
2023-04-23T16:12:55.587Z,98402.3
2023-04-23T16:18:32.463Z,98402.1
2023-04-23T16:24:11.871Z,98409.8
2023-04-23T16:29:52.042Z,98433.6
2023-04-23T16:35:34.535Z,98440.7
2023-04-23T16:41:15.223Z,98431.1
2023-04-23T16:46:53.372Z,98422.1
2023-04-23T16:52:29.109Z,98419.2
2023-04-23T16:58:05.641Z,98425
2023-04-23T17:03:42.765Z,98444
2023-04-23T17:09:19.506Z,98449.7
2023-04-23T17:14:55.954Z,98444.4
2023-04-23T17:20:32.550Z,98449.6
2023-04-23T17:26:08.905Z,98465
2023-04-23T17:31:44.092Z,98460.3
2023-04-23T17:37:21.399Z,98446.4
2023-04-23T17:42:57.682Z,98442
2023-04-23T17:48:33.130Z,98428.4
2023-04-23T17:54:30.231Z,98421.6
2023-04-23T18:00:04.861Z,98441.6
2023-04-23T18:05:41.142Z,98448.7
2023-04-23T18:11:17.359Z,98445.4
2023-04-23T18:16:53.484Z,98438.9
2023-04-23T18:22:29.481Z,98452.5
2023-04-23T18:28:05.288Z,98459.3
2023-04-23T18:33:41.039Z,98454
2023-04-23T18:39:16.828Z,98453.2
2023-04-23T18:44:53.120Z,98466.9
2023-04-23T18:50:28.619Z,98462.9
2023-04-23T18:56:03.928Z,98462.1
2023-04-23T19:01:40.034Z,98462.6
2023-04-23T19:07:15.792Z,98471.3
2023-04-23T19:12:55.043Z,98486.6
2023-04-23T19:18:31.272Z,98505
2023-04-23T19:24:06.238Z,98519.8
2023-04-23T19:29:43.309Z,98530.2
2023-04-23T19:35:19.828Z,98534.4
2023-04-23T19:40:56.807Z,98546.4
2023-04-23T19:46:32.176Z,98545.8
2023-04-23T19:52:29.755Z,98552.5
2023-04-23T19:58:05.204Z,98558.5
2023-04-23T20:03:42.991Z,98563.8
2023-04-23T20:09:19.353Z,98564.2
2023-04-23T20:14:55.396Z,98574
2023-04-23T20:20:32.261Z,98577.2
2023-04-23T20:26:07.906Z,98572.5
2023-04-23T20:31:44.183Z,98576.3
2023-04-23T20:37:21.687Z,98585.3
2023-04-23T20:42:57.387Z,98581.1
2023-04-23T20:48:33.121Z,98584.1
2023-04-23T20:54:30.326Z,98578.1
2023-04-23T21:00:06.925Z,98595.6
2023-04-23T21:05:42.788Z,98585.5
2023-04-23T21:11:18.858Z,98585.7
2023-04-23T21:16:54.011Z,98611.1
2023-04-23T21:22:33.238Z,98593.5
2023-04-23T21:28:10.132Z,98583.1
